sensor_id;sensor_type;location;lat;lon;timestamp;P1;durP1;ratioP1;P2;durP2;ratioP2
61473;SDS011;53694;49.784;30.150;2023-02-12T00:00:56;17.74;;;10.61;;
61473;SDS011;53694;49.784;30.150;2023-02-12T00:01:57;19.90;;;11.00;;
61473;SDS011;53694;49.784;30.150;2023-02-12T00:02:58;20.13;;;10.54;;
61473;SDS011;53694;49.784;30.150;2023-02-12T00:04:00;18.80;;;10.56;;
61473;SDS011;53694;49.784;30.150;2023-02-12T00:05:01;20.06;;;10.92;;
61473;SDS011;53694;49.784;30.150;2023-02-12T00:06:03;21.01;;;11.77;;
61473;SDS011;53694;49.784;30.150;2023-02-12T00:07:06;20.09;;;11.42;;
61473;SDS011;53694;49.784;30.150;2023-02-12T00:08:07;20.81;;;11.61;;
61473;SDS011;53694;49.784;30.150;2023-02-12T00:09:10;18.65;;;10.89;;
61473;SDS011;53694;49.784;30.150;2023-02-12T00:10:13;18.42;;;11.31;;
61473;SDS011;53694;49.784;30.150;2023-02-12T00:11:16;18.86;;;10.74;;
61473;SDS011;53694;49.784;30.150;2023-02-12T00:12:19;18.48;;;10.21;;
61473;SDS011;53694;49.784;30.150;2023-02-12T00:13:22;17.05;;;9.90;;
61473;SDS011;53694;49.784;30.150;2023-02-12T00:14:23;17.59;;;10.39;;
61473;SDS011;53694;49.784;30.150;2023-02-12T00:15:25;18.61;;;10.19;;
61473;SDS011;53694;49.784;30.150;2023-02-12T00:16:27;18.91;;;10.53;;
61473;SDS011;53694;49.784;30.150;2023-02-12T00:17:29;15.95;;;9.65;;
61473;SDS011;53694;49.784;30.150;2023-02-12T00:18:30;16.22;;;9.49;;
61473;SDS011;53694;49.784;30.150;2023-02-12T00:19:32;18.09;;;9.71;;
61473;SDS011;53694;49.784;30.150;2023-02-12T00:20:34;18.99;;;9.76;;
61473;SDS011;53694;49.784;30.150;2023-02-12T00:21:36;18.71;;;9.70;;
61473;SDS011;53694;49.784;30.150;2023-02-12T00:22:38;18.64;;;10.31;;
61473;SDS011;53694;49.784;30.150;2023-02-12T00:23:40;17.90;;;9.32;;
61473;SDS011;53694;49.784;30.150;2023-02-12T00:24:41;17.93;;;9.95;;
61473;SDS011;53694;49.784;30.150;2023-02-12T00:25:43;15.57;;;8.66;;
61473;SDS011;53694;49.784;30.150;2023-02-12T00:26:45;18.54;;;9.69;;
61473;SDS011;53694;49.784;30.150;2023-02-12T00:27:46;15.63;;;8.66;;
61473;SDS011;53694;49.784;30.150;2023-02-12T00:28:48;17.59;;;9.74;;
61473;SDS011;53694;49.784;30.150;2023-02-12T00:29:50;19.20;;;9.06;;
61473;SDS011;53694;49.784;30.150;2023-02-12T00:30:52;19.81;;;9.41;;
61473;SDS011;53694;49.784;30.150;2023-02-12T00:31:53;18.31;;;8.73;;
61473;SDS011;53694;49.784;30.150;2023-02-12T00:32:55;16.44;;;8.94;;
61473;SDS011;53694;49.784;30.150;2023-02-12T00:33:56;15.27;;;7.81;;
61473;SDS011;53694;49.784;30.150;2023-02-12T00:34:59;14.50;;;8.46;;
61473;SDS011;53694;49.784;30.150;2023-02-12T00:36:01;17.05;;;9.12;;
61473;SDS011;53694;49.784;30.150;2023-02-12T00:37:03;17.00;;;9.35;;
61473;SDS011;53694;49.784;30.150;2023-02-12T00:38:05;15.54;;;8.69;;
61473;SDS011;53694;49.784;30.150;2023-02-12T00:39:06;15.15;;;7.58;;
61473;SDS011;53694;49.784;30.150;2023-02-12T00:40:08;13.25;;;7.25;;
61473;SDS011;53694;49.784;30.150;2023-02-12T00:41:11;14.33;;;8.43;;
61473;SDS011;53694;49.784;30.150;2023-02-12T00:42:13;15.99;;;9.25;;
61473;SDS011;53694;49.784;30.150;2023-02-12T00:43:14;16.79;;;9.34;;
61473;SDS011;53694;49.784;30.150;2023-02-12T00:44:16;15.06;;;8.51;;
61473;SDS011;53694;49.784;30.150;2023-02-12T00:45:17;13.94;;;8.21;;
61473;SDS011;53694;49.784;30.150;2023-02-12T00:46:19;16.97;;;8.67;;
61473;SDS011;53694;49.784;30.150;2023-02-12T00:47:21;14.43;;;8.36;;
61473;SDS011;53694;49.784;30.150;2023-02-12T00:48:23;14.47;;;8.72;;
61473;SDS011;53694;49.784;30.150;2023-02-12T00:49:25;15.61;;;8.86;;
61473;SDS011;53694;49.784;30.150;2023-02-12T00:50:27;14.07;;;7.90;;
61473;SDS011;53694;49.784;30.150;2023-02-12T00:51:28;15.45;;;7.96;;
61473;SDS011;53694;49.784;30.150;2023-02-12T00:52:30;15.76;;;9.24;;
61473;SDS011;53694;49.784;30.150;2023-02-12T00:53:31;16.05;;;9.01;;
61473;SDS011;53694;49.784;30.150;2023-02-12T00:54:33;15.41;;;8.33;;
61473;SDS011;53694;49.784;30.150;2023-02-12T00:55:35;14.33;;;8.70;;
61473;SDS011;53694;49.784;30.150;2023-02-12T00:56:36;14.11;;;8.90;;
61473;SDS011;53694;49.784;30.150;2023-02-12T00:57:38;13.81;;;7.89;;
61473;SDS011;53694;49.784;30.150;2023-02-12T00:58:39;13.76;;;8.18;;
61473;SDS011;53694;49.784;30.150;2023-02-12T00:59:41;15.28;;;7.89;;
61473;SDS011;53694;49.784;30.150;2023-02-12T01:00:43;13.06;;;7.81;;
61473;SDS011;53694;49.784;30.150;2023-02-12T01:01:45;13.69;;;8.21;;
61473;SDS011;53694;49.784;30.150;2023-02-12T01:02:46;13.02;;;7.59;;
61473;SDS011;53694;49.784;30.150;2023-02-12T01:03:48;15.15;;;7.75;;
61473;SDS011;53694;49.784;30.150;2023-02-12T01:04:49;16.36;;;7.94;;
61473;SDS011;53694;49.784;30.150;2023-02-12T01:05:51;13.85;;;7.21;;
61473;SDS011;53694;49.784;30.150;2023-02-12T01:06:53;13.79;;;7.49;;
61473;SDS011;53694;49.784;30.150;2023-02-12T01:07:55;12.73;;;7.89;;
61473;SDS011;53694;49.784;30.150;2023-02-12T01:08:57;13.95;;;7.23;;
61473;SDS011;53694;49.784;30.150;2023-02-12T01:09:58;11.83;;;7.41;;
61473;SDS011;53694;49.784;30.150;2023-02-12T01:11:01;13.92;;;6.87;;
61473;SDS011;53694;49.784;30.150;2023-02-12T01:12:05;12.82;;;7.45;;
61473;SDS011;53694;49.784;30.150;2023-02-12T01:13:08;12.78;;;6.61;;
61473;SDS011;53694;49.784;30.150;2023-02-12T01:14:12;10.43;;;6.52;;
61473;SDS011;53694;49.784;30.150;2023-02-12T01:15:14;10.74;;;6.09;;
61473;SDS011;53694;49.784;30.150;2023-02-12T01:16:18;13.74;;;6.89;;
61473;SDS011;53694;49.784;30.150;2023-02-12T01:17:21;12.72;;;6.82;;
61473;SDS011;53694;49.784;30.150;2023-02-12T01:18:23;12.11;;;6.76;;
61473;SDS011;53694;49.784;30.150;2023-02-12T01:19:24;11.48;;;6.80;;
61473;SDS011;53694;49.784;30.150;2023-02-12T01:20:26;11.05;;;6.01;;
61473;SDS011;53694;49.784;30.150;2023-02-12T01:21:28;10.22;;;6.40;;
61473;SDS011;53694;49.784;30.150;2023-02-12T01:22:34;12.39;;;6.74;;
61473;SDS011;53694;49.784;30.150;2023-02-12T01:23:38;10.96;;;6.47;;
61473;SDS011;53694;49.784;30.150;2023-02-12T01:24:40;11.31;;;6.08;;
61473;SDS011;53694;49.784;30.150;2023-02-12T01:25:42;11.48;;;5.85;;
61473;SDS011;53694;49.784;30.150;2023-02-12T01:26:43;11.86;;;6.07;;
61473;SDS011;53694;49.784;30.150;2023-02-12T01:27:45;9.28;;;5.59;;
61473;SDS011;53694;49.784;30.150;2023-02-12T01:28:51;12.94;;;6.07;;
61473;SDS011;53694;49.784;30.150;2023-02-12T01:29:54;11.45;;;6.43;;
61473;SDS011;53694;49.784;30.150;2023-02-12T01:30:55;10.43;;;5.82;;
61473;SDS011;53694;49.784;30.150;2023-02-12T01:31:57;10.16;;;5.76;;
61473;SDS011;53694;49.784;30.150;2023-02-12T01:32:58;11.09;;;5.94;;
61473;SDS011;53694;49.784;30.150;2023-02-12T01:34:00;9.49;;;5.80;;
61473;SDS011;53694;49.784;30.150;2023-02-12T01:35:02;10.41;;;5.87;;
61473;SDS011;53694;49.784;30.150;2023-02-12T01:36:05;10.21;;;5.72;;
61473;SDS011;53694;49.784;30.150;2023-02-12T01:37:07;10.06;;;5.15;;
61473;SDS011;53694;49.784;30.150;2023-02-12T01:38:09;10.43;;;6.46;;
61473;SDS011;53694;49.784;30.150;2023-02-12T01:39:10;9.69;;;5.54;;
61473;SDS011;53694;49.784;30.150;2023-02-12T01:40:13;9.14;;;5.45;;
61473;SDS011;53694;49.784;30.150;2023-02-12T01:41:18;9.21;;;5.34;;
61473;SDS011;53694;49.784;30.150;2023-02-12T01:42:22;11.35;;;6.03;;
61473;SDS011;53694;49.784;30.150;2023-02-12T01:43:23;11.63;;;6.49;;
61473;SDS011;53694;49.784;30.150;2023-02-12T01:44:28;9.86;;;5.79;;
61473;SDS011;53694;49.784;30.150;2023-02-12T01:46:48;8.81;;;5.46;;
61473;SDS011;53694;49.784;30.150;2023-02-12T01:47:51;11.07;;;6.51;;
61473;SDS011;53694;49.784;30.150;2023-02-12T01:48:53;9.56;;;5.72;;
61473;SDS011;53694;49.784;30.150;2023-02-12T01:49:55;9.96;;;5.73;;
61473;SDS011;53694;49.784;30.150;2023-02-12T01:50:57;9.79;;;5.79;;
61473;SDS011;53694;49.784;30.150;2023-02-12T01:52:02;10.57;;;5.80;;
61473;SDS011;53694;49.784;30.150;2023-02-12T01:53:17;8.24;;;4.38;;
61473;SDS011;53694;49.784;30.150;2023-02-12T01:55:20;10.86;;;6.00;;
61473;SDS011;53694;49.784;30.150;2023-02-12T01:56:22;10.78;;;5.89;;
61473;SDS011;53694;49.784;30.150;2023-02-12T01:57:25;8.49;;;5.51;;
61473;SDS011;53694;49.784;30.150;2023-02-12T01:58:30;10.02;;;5.56;;
61473;SDS011;53694;49.784;30.150;2023-02-12T01:59:39;9.52;;;5.46;;
61473;SDS011;53694;49.784;30.150;2023-02-12T02:00:43;10.19;;;5.32;;
61473;SDS011;53694;49.784;30.150;2023-02-12T02:01:45;9.33;;;5.12;;
61473;SDS011;53694;49.784;30.150;2023-02-12T02:02:48;10.88;;;5.67;;
61473;SDS011;53694;49.784;30.150;2023-02-12T02:03:53;9.60;;;5.54;;
61473;SDS011;53694;49.784;30.150;2023-02-12T02:04:58;10.45;;;5.44;;
61473;SDS011;53694;49.784;30.150;2023-02-12T02:06:05;10.48;;;4.86;;
61473;SDS011;53694;49.784;30.150;2023-02-12T02:07:10;9.02;;;5.00;;
61473;SDS011;53694;49.784;30.150;2023-02-12T02:08:12;7.73;;;5.11;;
61473;SDS011;53694;49.784;30.150;2023-02-12T02:09:15;9.13;;;5.24;;
61473;SDS011;53694;49.784;30.150;2023-02-12T02:10:19;9.36;;;5.66;;
61473;SDS011;53694;49.784;30.150;2023-02-12T02:11:21;11.16;;;5.95;;
61473;SDS011;53694;49.784;30.150;2023-02-12T02:12:23;10.32;;;6.15;;
61473;SDS011;53694;49.784;30.150;2023-02-12T02:13:26;9.67;;;5.84;;
61473;SDS011;53694;49.784;30.150;2023-02-12T02:14:28;10.74;;;6.05;;
61473;SDS011;53694;49.784;30.150;2023-02-12T02:15:30;8.75;;;5.09;;
61473;SDS011;53694;49.784;30.150;2023-02-12T02:16:32;7.58;;;4.67;;
61473;SDS011;53694;49.784;30.150;2023-02-12T02:18:59;8.14;;;4.44;;
61473;SDS011;53694;49.784;30.150;2023-02-12T02:22:53;9.61;;;5.34;;
61473;SDS011;53694;49.784;30.150;2023-02-12T02:34:11;5.83;;;3.88;;
61473;SDS011;53694;49.784;30.150;2023-02-12T02:35:36;8.92;;;4.36;;
61473;SDS011;53694;49.784;30.150;2023-02-12T02:36:44;6.29;;;3.73;;
61473;SDS011;53694;49.784;30.150;2023-02-12T02:38:35;7.02;;;4.09;;
61473;SDS011;53694;49.784;30.150;2023-02-12T02:38:59;6.54;;;3.90;;
61473;SDS011;53694;49.784;30.150;2023-02-12T02:40:11;6.65;;;3.83;;
61473;SDS011;53694;49.784;30.150;2023-02-12T02:41:29;6.22;;;3.43;;
61473;SDS011;53694;49.784;30.150;2023-02-12T02:42:34;7.48;;;3.50;;
61473;SDS011;53694;49.784;30.150;2023-02-12T02:43:38;6.68;;;3.32;;
61473;SDS011;53694;49.784;30.150;2023-02-12T02:44:47;6.53;;;3.08;;
61473;SDS011;53694;49.784;30.150;2023-02-12T02:45:51;6.16;;;3.46;;
61473;SDS011;53694;49.784;30.150;2023-02-12T02:46:56;5.49;;;2.89;;
61473;SDS011;53694;49.784;30.150;2023-02-12T02:48:08;7.18;;;3.61;;
61473;SDS011;53694;49.784;30.150;2023-02-12T02:49:09;5.56;;;3.17;;
61473;SDS011;53694;49.784;30.150;2023-02-12T02:50:14;6.02;;;3.41;;
61473;SDS011;53694;49.784;30.150;2023-02-12T02:51:20;6.23;;;3.48;;
61473;SDS011;53694;49.784;30.150;2023-02-12T02:52:34;5.39;;;2.51;;
61473;SDS011;53694;49.784;30.150;2023-02-12T02:53:45;5.57;;;2.87;;
61473;SDS011;53694;49.784;30.150;2023-02-12T02:54:53;5.67;;;3.13;;
61473;SDS011;53694;49.784;30.150;2023-02-12T02:55:57;7.93;;;3.36;;
61473;SDS011;53694;49.784;30.150;2023-02-12T02:57:07;6.31;;;3.27;;
61473;SDS011;53694;49.784;30.150;2023-02-12T02:58:11;6.66;;;3.92;;
61473;SDS011;53694;49.784;30.150;2023-02-12T02:59:20;7.68;;;3.48;;
61473;SDS011;53694;49.784;30.150;2023-02-12T03:00:30;6.06;;;3.10;;
61473;SDS011;53694;49.784;30.150;2023-02-12T03:02:51;6.26;;;2.89;;
61473;SDS011;53694;49.784;30.150;2023-02-12T03:04:11;5.28;;;2.61;;
61473;SDS011;53694;49.784;30.150;2023-02-12T03:05:38;5.61;;;2.93;;
61473;SDS011;53694;49.784;30.150;2023-02-12T03:06:52;5.06;;;2.24;;
61473;SDS011;53694;49.784;30.150;2023-02-12T03:09:14;5.66;;;2.63;;
61473;SDS011;53694;49.784;30.150;2023-02-12T03:10:25;5.39;;;2.75;;
61473;SDS011;53694;49.784;30.150;2023-02-12T03:11:33;4.66;;;2.48;;
61473;SDS011;53694;49.784;30.150;2023-02-12T03:12:39;4.04;;;2.11;;
61473;SDS011;53694;49.784;30.150;2023-02-12T03:13:54;4.49;;;1.98;;
61473;SDS011;53694;49.784;30.150;2023-02-12T03:15:17;5.62;;;2.22;;
61473;SDS011;53694;49.784;30.150;2023-02-12T03:16:22;4.38;;;2.21;;
61473;SDS011;53694;49.784;30.150;2023-02-12T03:17:26;6.02;;;2.70;;
61473;SDS011;53694;49.784;30.150;2023-02-12T03:18:32;4.02;;;2.09;;
61473;SDS011;53694;49.784;30.150;2023-02-12T03:19:36;6.88;;;3.68;;
61473;SDS011;53694;49.784;30.150;2023-02-12T03:20:46;18.56;;;10.32;;
61473;SDS011;53694;49.784;30.150;2023-02-12T03:21:51;5.05;;;2.88;;
61473;SDS011;53694;49.784;30.150;2023-02-12T03:22:56;6.02;;;2.54;;
61473;SDS011;53694;49.784;30.150;2023-02-12T03:24:15;3.32;;;1.72;;
61473;SDS011;53694;49.784;30.150;2023-02-12T03:25:32;2.81;;;1.62;;
61473;SDS011;53694;49.784;30.150;2023-02-12T03:26:45;3.57;;;1.62;;
61473;SDS011;53694;49.784;30.150;2023-02-12T03:27:51;4.02;;;1.94;;
61473;SDS011;53694;49.784;30.150;2023-02-12T03:28:56;3.62;;;1.63;;
61473;SDS011;53694;49.784;30.150;2023-02-12T03:29:58;4.07;;;2.54;;
61473;SDS011;53694;49.784;30.150;2023-02-12T03:31:05;3.15;;;1.43;;
61473;SDS011;53694;49.784;30.150;2023-02-12T03:32:20;3.14;;;1.52;;
61473;SDS011;53694;49.784;30.150;2023-02-12T03:34:46;3.08;;;1.57;;
61473;SDS011;53694;49.784;30.150;2023-02-12T03:35:53;3.96;;;1.59;;
61473;SDS011;53694;49.784;30.150;2023-02-12T03:36:57;3.38;;;1.66;;
61473;SDS011;53694;49.784;30.150;2023-02-12T03:40:48;3.57;;;1.68;;
61473;SDS011;53694;49.784;30.150;2023-02-12T03:43:30;5.63;;;2.43;;
61473;SDS011;53694;49.784;30.150;2023-02-12T03:44:52;3.42;;;1.54;;
61473;SDS011;53694;49.784;30.150;2023-02-12T03:45:58;12.71;;;5.40;;
61473;SDS011;53694;49.784;30.150;2023-02-12T03:47:26;19.44;;;8.50;;
61473;SDS011;53694;49.784;30.150;2023-02-12T03:49:31;5.26;;;2.31;;
61473;SDS011;53694;49.784;30.150;2023-02-12T03:51:59;3.55;;;1.24;;
61473;SDS011;53694;49.784;30.150;2023-02-12T03:53:00;2.61;;;1.12;;
61473;SDS011;53694;49.784;30.150;2023-02-12T03:54:03;1.85;;;1.05;;
61473;SDS011;53694;49.784;30.150;2023-02-12T03:55:06;2.74;;;1.36;;
61473;SDS011;53694;49.784;30.150;2023-02-12T03:56:12;3.10;;;1.15;;
61473;SDS011;53694;49.784;30.150;2023-02-12T03:57:20;2.64;;;1.23;;
61473;SDS011;53694;49.784;30.150;2023-02-12T03:58:25;2.52;;;1.19;;
61473;SDS011;53694;49.784;30.150;2023-02-12T03:59:29;2.26;;;1.05;;
61473;SDS011;53694;49.784;30.150;2023-02-12T04:00:31;3.69;;;1.16;;
61473;SDS011;53694;49.784;30.150;2023-02-12T04:01:32;3.70;;;1.58;;
61473;SDS011;53694;49.784;30.150;2023-02-12T04:02:35;2.20;;;1.04;;
61473;SDS011;53694;49.784;30.150;2023-02-12T04:03:37;3.26;;;1.32;;
61473;SDS011;53694;49.784;30.150;2023-02-12T04:04:39;4.37;;;1.24;;
61473;SDS011;53694;49.784;30.150;2023-02-12T04:05:40;3.47;;;1.41;;
61473;SDS011;53694;49.784;30.150;2023-02-12T04:06:42;3.27;;;1.33;;
61473;SDS011;53694;49.784;30.150;2023-02-12T04:07:47;3.21;;;1.38;;
61473;SDS011;53694;49.784;30.150;2023-02-12T04:08:50;2.00;;;1.00;;
61473;SDS011;53694;49.784;30.150;2023-02-12T04:09:53;2.04;;;0.93;;
61473;SDS011;53694;49.784;30.150;2023-02-12T04:12:14;1.45;;;0.84;;
61473;SDS011;53694;49.784;30.150;2023-02-12T04:13:27;1.29;;;0.76;;
61473;SDS011;53694;49.784;30.150;2023-02-12T04:15:50;3.40;;;1.01;;
61473;SDS011;53694;49.784;30.150;2023-02-12T04:17:13;1.65;;;0.79;;
61473;SDS011;53694;49.784;30.150;2023-02-12T04:24:02;2.56;;;1.15;;
61473;SDS011;53694;49.784;30.150;2023-02-12T04:25:20;2.41;;;1.02;;
61473;SDS011;53694;49.784;30.150;2023-02-12T04:31:43;2.27;;;0.75;;
61473;SDS011;53694;49.784;30.150;2023-02-12T04:33:21;1.83;;;0.75;;
61473;SDS011;53694;49.784;30.150;2023-02-12T04:35:27;2.34;;;0.78;;
61473;SDS011;53694;49.784;30.150;2023-02-12T04:36:28;1.64;;;0.68;;
61473;SDS011;53694;49.784;30.150;2023-02-12T04:38:42;1.77;;;0.88;;
61473;SDS011;53694;49.784;30.150;2023-02-12T04:39:46;2.16;;;0.83;;
61473;SDS011;53694;49.784;30.150;2023-02-12T04:40:49;1.55;;;0.67;;
61473;SDS011;53694;49.784;30.150;2023-02-12T04:41:52;1.50;;;0.75;;
61473;SDS011;53694;49.784;30.150;2023-02-12T04:42:53;1.25;;;0.72;;
61473;SDS011;53694;49.784;30.150;2023-02-12T04:43:55;1.91;;;0.84;;
61473;SDS011;53694;49.784;30.150;2023-02-12T04:44:57;2.13;;;0.95;;
61473;SDS011;53694;49.784;30.150;2023-02-12T04:45:59;1.95;;;0.87;;
61473;SDS011;53694;49.784;30.150;2023-02-12T04:47:01;1.77;;;0.78;;
61473;SDS011;53694;49.784;30.150;2023-02-12T04:48:03;1.72;;;0.85;;
61473;SDS011;53694;49.784;30.150;2023-02-12T04:49:05;2.55;;;0.90;;
61473;SDS011;53694;49.784;30.150;2023-02-12T04:50:10;2.21;;;0.91;;
61473;SDS011;53694;49.784;30.150;2023-02-12T04:51:12;2.05;;;0.98;;
61473;SDS011;53694;49.784;30.150;2023-02-12T04:52:13;1.68;;;0.75;;
61473;SDS011;53694;49.784;30.150;2023-02-12T04:53:15;3.09;;;1.04;;
61473;SDS011;53694;49.784;30.150;2023-02-12T04:54:17;3.49;;;1.04;;
61473;SDS011;53694;49.784;30.150;2023-02-12T04:55:20;1.92;;;0.83;;
61473;SDS011;53694;49.784;30.150;2023-02-12T04:56:21;0.98;;;0.50;;
61473;SDS011;53694;49.784;30.150;2023-02-12T04:57:23;2.12;;;0.71;;
61473;SDS011;53694;49.784;30.150;2023-02-12T04:58:25;1.36;;;0.62;;
61473;SDS011;53694;49.784;30.150;2023-02-12T04:59:26;3.27;;;1.23;;
61473;SDS011;53694;49.784;30.150;2023-02-12T05:00:28;1.81;;;0.89;;
61473;SDS011;53694;49.784;30.150;2023-02-12T05:01:32;2.71;;;0.88;;
61473;SDS011;53694;49.784;30.150;2023-02-12T05:02:34;2.12;;;0.82;;
61473;SDS011;53694;49.784;30.150;2023-02-12T05:03:36;2.05;;;0.79;;
61473;SDS011;53694;49.784;30.150;2023-02-12T05:04:38;2.79;;;1.03;;
61473;SDS011;53694;49.784;30.150;2023-02-12T05:05:39;2.94;;;0.84;;
61473;SDS011;53694;49.784;30.150;2023-02-12T05:06:42;2.19;;;0.89;;
61473;SDS011;53694;49.784;30.150;2023-02-12T05:07:44;4.41;;;1.29;;
61473;SDS011;53694;49.784;30.150;2023-02-12T05:08:46;3.13;;;0.97;;
61473;SDS011;53694;49.784;30.150;2023-02-12T05:09:47;3.81;;;0.94;;
61473;SDS011;53694;49.784;30.150;2023-02-12T05:10:49;3.39;;;0.91;;
61473;SDS011;53694;49.784;30.150;2023-02-12T05:11:50;3.41;;;1.01;;
61473;SDS011;53694;49.784;30.150;2023-02-12T05:12:52;4.82;;;0.82;;
61473;SDS011;53694;49.784;30.150;2023-02-12T05:13:55;3.18;;;0.91;;
61473;SDS011;53694;49.784;30.150;2023-02-12T05:14:58;3.10;;;0.83;;
61473;SDS011;53694;49.784;30.150;2023-02-12T05:16:02;3.46;;;0.78;;
61473;SDS011;53694;49.784;30.150;2023-02-12T05:17:07;3.94;;;1.12;;
61473;SDS011;53694;49.784;30.150;2023-02-12T05:18:08;2.29;;;0.80;;
61473;SDS011;53694;49.784;30.150;2023-02-12T05:19:10;1.64;;;0.69;;
61473;SDS011;53694;49.784;30.150;2023-02-12T05:20:12;4.45;;;0.85;;
61473;SDS011;53694;49.784;30.150;2023-02-12T05:21:14;2.77;;;0.60;;
61473;SDS011;53694;49.784;30.150;2023-02-12T05:22:16;2.10;;;0.79;;
61473;SDS011;53694;49.784;30.150;2023-02-12T05:23:18;2.12;;;0.85;;
61473;SDS011;53694;49.784;30.150;2023-02-12T05:24:19;4.23;;;0.85;;
61473;SDS011;53694;49.784;30.150;2023-02-12T05:25:21;4.54;;;1.14;;
61473;SDS011;53694;49.784;30.150;2023-02-12T05:26:23;3.29;;;0.94;;
61473;SDS011;53694;49.784;30.150;2023-02-12T05:27:24;2.15;;;0.99;;
61473;SDS011;53694;49.784;30.150;2023-02-12T05:28:26;2.22;;;0.85;;
61473;SDS011;53694;49.784;30.150;2023-02-12T05:29:29;2.70;;;1.06;;
61473;SDS011;53694;49.784;30.150;2023-02-12T05:30:31;3.44;;;1.01;;
61473;SDS011;53694;49.784;30.150;2023-02-12T05:31:32;2.96;;;1.14;;
61473;SDS011;53694;49.784;30.150;2023-02-12T05:32:34;3.77;;;1.13;;
61473;SDS011;53694;49.784;30.150;2023-02-12T05:33:36;2.26;;;1.02;;
61473;SDS011;53694;49.784;30.150;2023-02-12T05:34:37;4.61;;;1.11;;
61473;SDS011;53694;49.784;30.150;2023-02-12T05:35:39;2.79;;;0.88;;
61473;SDS011;53694;49.784;30.150;2023-02-12T05:36:41;3.03;;;0.81;;
61473;SDS011;53694;49.784;30.150;2023-02-12T05:37:42;3.92;;;0.93;;
61473;SDS011;53694;49.784;30.150;2023-02-12T05:38:44;2.99;;;1.16;;
61473;SDS011;53694;49.784;30.150;2023-02-12T05:39:47;3.15;;;1.29;;
61473;SDS011;53694;49.784;30.150;2023-02-12T05:40:49;4.68;;;1.05;;
61473;SDS011;53694;49.784;30.150;2023-02-12T05:41:51;2.18;;;0.68;;
61473;SDS011;53694;49.784;30.150;2023-02-12T05:42:52;2.37;;;0.60;;
61473;SDS011;53694;49.784;30.150;2023-02-12T05:43:54;1.78;;;0.58;;
61473;SDS011;53694;49.784;30.150;2023-02-12T05:44:55;1.94;;;0.74;;
61473;SDS011;53694;49.784;30.150;2023-02-12T05:46:02;2.12;;;0.90;;
61473;SDS011;53694;49.784;30.150;2023-02-12T05:47:01;3.45;;;1.09;;
61473;SDS011;53694;49.784;30.150;2023-02-12T05:48:03;2.97;;;0.91;;
61473;SDS011;53694;49.784;30.150;2023-02-12T05:49:05;2.99;;;0.87;;
61473;SDS011;53694;49.784;30.150;2023-02-12T05:50:07;3.95;;;1.31;;
61473;SDS011;53694;49.784;30.150;2023-02-12T05:51:10;8.24;;;1.85;;
61473;SDS011;53694;49.784;30.150;2023-02-12T05:52:14;7.85;;;1.81;;
61473;SDS011;53694;49.784;30.150;2023-02-12T05:53:15;5.40;;;2.20;;
61473;SDS011;53694;49.784;30.150;2023-02-12T05:54:16;6.25;;;2.04;;
61473;SDS011;53694;49.784;30.150;2023-02-12T05:55:18;6.51;;;2.14;;
61473;SDS011;53694;49.784;30.150;2023-02-12T05:56:24;8.57;;;2.76;;
61473;SDS011;53694;49.784;30.150;2023-02-12T05:57:28;6.89;;;2.05;;
61473;SDS011;53694;49.784;30.150;2023-02-12T05:58:29;7.31;;;2.35;;
61473;SDS011;53694;49.784;30.150;2023-02-12T05:59:31;6.11;;;2.09;;
61473;SDS011;53694;49.784;30.150;2023-02-12T06:00:32;6.53;;;2.03;;
61473;SDS011;53694;49.784;30.150;2023-02-12T06:01:35;6.95;;;1.88;;
61473;SDS011;53694;49.784;30.150;2023-02-12T06:02:39;4.82;;;1.77;;
61473;SDS011;53694;49.784;30.150;2023-02-12T06:03:41;4.81;;;1.45;;
61473;SDS011;53694;49.784;30.150;2023-02-12T06:04:43;4.41;;;1.14;;
61473;SDS011;53694;49.784;30.150;2023-02-12T06:05:48;4.04;;;1.69;;
61473;SDS011;53694;49.784;30.150;2023-02-12T06:06:51;4.00;;;1.21;;
61473;SDS011;53694;49.784;30.150;2023-02-12T06:07:54;2.93;;;0.88;;
61473;SDS011;53694;49.784;30.150;2023-02-12T06:08:56;4.23;;;1.06;;
61473;SDS011;53694;49.784;30.150;2023-02-12T06:09:59;2.81;;;1.24;;
61473;SDS011;53694;49.784;30.150;2023-02-12T06:11:01;2.53;;;0.89;;
61473;SDS011;53694;49.784;30.150;2023-02-12T06:12:05;2.99;;;0.99;;
61473;SDS011;53694;49.784;30.150;2023-02-12T06:13:06;2.56;;;1.15;;
61473;SDS011;53694;49.784;30.150;2023-02-12T06:14:10;3.16;;;1.10;;
61473;SDS011;53694;49.784;30.150;2023-02-12T06:15:13;4.79;;;1.32;;
61473;SDS011;53694;49.784;30.150;2023-02-12T06:16:16;4.43;;;1.11;;
61473;SDS011;53694;49.784;30.150;2023-02-12T06:17:22;2.99;;;1.04;;
61473;SDS011;53694;49.784;30.150;2023-02-12T06:18:24;3.01;;;0.99;;
61473;SDS011;53694;49.784;30.150;2023-02-12T06:19:26;4.87;;;1.32;;
61473;SDS011;53694;49.784;30.150;2023-02-12T06:20:28;4.17;;;1.15;;
61473;SDS011;53694;49.784;30.150;2023-02-12T06:21:30;5.01;;;1.66;;
61473;SDS011;53694;49.784;30.150;2023-02-12T06:22:32;5.21;;;1.51;;
61473;SDS011;53694;49.784;30.150;2023-02-12T06:23:34;9.51;;;2.29;;
61473;SDS011;53694;49.784;30.150;2023-02-12T06:24:35;7.66;;;3.09;;
61473;SDS011;53694;49.784;30.150;2023-02-12T06:25:37;5.77;;;1.89;;
61473;SDS011;53694;49.784;30.150;2023-02-12T06:26:39;4.89;;;1.92;;
61473;SDS011;53694;49.784;30.150;2023-02-12T06:27:40;4.28;;;1.31;;
61473;SDS011;53694;49.784;30.150;2023-02-12T06:28:42;4.56;;;1.54;;
61473;SDS011;53694;49.784;30.150;2023-02-12T06:29:44;4.32;;;1.56;;
61473;SDS011;53694;49.784;30.150;2023-02-12T06:30:46;4.87;;;2.09;;
61473;SDS011;53694;49.784;30.150;2023-02-12T06:31:47;5.06;;;1.62;;
61473;SDS011;53694;49.784;30.150;2023-02-12T06:32:49;6.45;;;1.76;;
61473;SDS011;53694;49.784;30.150;2023-02-12T06:33:51;7.89;;;2.41;;
61473;SDS011;53694;49.784;30.150;2023-02-12T06:34:53;5.61;;;1.76;;
61473;SDS011;53694;49.784;30.150;2023-02-12T06:35:55;10.74;;;2.95;;
61473;SDS011;53694;49.784;30.150;2023-02-12T06:36:57;8.63;;;3.29;;
61473;SDS011;53694;49.784;30.150;2023-02-12T06:37:59;6.44;;;2.58;;
61473;SDS011;53694;49.784;30.150;2023-02-12T06:39:00;6.74;;;1.72;;
61473;SDS011;53694;49.784;30.150;2023-02-12T06:40:03;5.78;;;1.82;;
61473;SDS011;53694;49.784;30.150;2023-02-12T06:41:05;4.47;;;1.88;;
61473;SDS011;53694;49.784;30.150;2023-02-12T06:42:06;6.29;;;1.95;;
61473;SDS011;53694;49.784;30.150;2023-02-12T06:43:08;4.19;;;1.92;;
61473;SDS011;53694;49.784;30.150;2023-02-12T06:44:10;5.80;;;1.83;;
61473;SDS011;53694;49.784;30.150;2023-02-12T06:45:12;6.60;;;1.79;;
61473;SDS011;53694;49.784;30.150;2023-02-12T06:46:15;2.89;;;1.24;;
61473;SDS011;53694;49.784;30.150;2023-02-12T06:47:16;5.86;;;1.43;;
61473;SDS011;53694;49.784;30.150;2023-02-12T06:48:18;5.89;;;2.42;;
61473;SDS011;53694;49.784;30.150;2023-02-12T06:49:19;5.56;;;1.51;;
61473;SDS011;53694;49.784;30.150;2023-02-12T06:50:21;4.38;;;1.64;;
61473;SDS011;53694;49.784;30.150;2023-02-12T06:51:23;6.81;;;2.04;;
61473;SDS011;53694;49.784;30.150;2023-02-12T06:52:26;5.08;;;1.57;;
61473;SDS011;53694;49.784;30.150;2023-02-12T06:53:28;6.47;;;2.00;;
61473;SDS011;53694;49.784;30.150;2023-02-12T06:54:29;7.96;;;2.81;;
61473;SDS011;53694;49.784;30.150;2023-02-12T06:55:31;8.00;;;2.56;;
61473;SDS011;53694;49.784;30.150;2023-02-12T06:56:32;4.86;;;1.62;;
61473;SDS011;53694;49.784;30.150;2023-02-12T06:57:34;5.99;;;1.96;;
61473;SDS011;53694;49.784;30.150;2023-02-12T06:58:36;4.99;;;1.84;;
61473;SDS011;53694;49.784;30.150;2023-02-12T06:59:38;6.89;;;2.63;;
61473;SDS011;53694;49.784;30.150;2023-02-12T07:00:40;8.70;;;1.80;;